Time;durP1;ratioP1;P1;durP2;ratioP2;P2;SDS_P1;SDS_P2;PMS_P1;PMS_P2;Temp;Humidity;BMP_temperature;BMP_pressure;BME280_temperature;BME280_humidity;BME280_pressure;Samples;Min_cycle;Max_cycle;Signal;HPM_P1;HPM_P2
2022/06/02 00:02:37;;;;;;;17.20;7.55;;;;;;;;;;5075462;28;20438;-77
2022/06/02 00:05:24;;;;;;;25.30;7.43;;;;;;;;;;5070140;28;20519;-77
2022/06/02 00:07:50;;;;;;;14.60;7.30;;;;;;;;;;5077134;28;20020;-77
2022/06/02 00:10:34;;;;;;;18.50;7.38;;;;;;;;;;5072823;28;20028;-77
2022/06/02 00:13:17;;;;;;;19.77;7.15;;;;;;;;;;5069843;28;20021;-77
2022/06/02 00:15:52;;;;;;;16.90;7.32;;;;;;;;;;5075015;28;20035;-77
2022/06/02 00:18:27;;;;;;;22.08;7.53;;;;;;;;;;5079256;28;20164;-77
2022/06/02 00:21:03;;;;;;;17.40;7.18;;;;;;;;;;5078920;28;20020;-77
2022/06/02 00:24:07;;;;;;;21.13;7.47;;;;;;;;;;5077133;28;20082;-77
2022/06/02 00:26:45;;;;;;;16.45;7.30;;;;;;;;;;4975239;28;20033;-77
2022/06/02 00:29:18;;;;;;;15.07;6.78;;;;;;;;;;4964880;28;20034;-78
2022/06/02 00:31:44;;;;;;;15.10;6.60;;;;;;;;;;5037337;28;20416;-77
2022/06/02 00:34:28;;;;;;;17.63;6.25;;;;;;;;;;5069716;28;20048;-77
2022/06/02 00:37:04;;;;;;;22.08;6.75;;;;;;;;;;5076477;28;20044;-77
2022/06/02 00:39:32;;;;;;;15.90;6.55;;;;;;;;;;5077087;28;20504;-77
2022/06/02 00:42:07;;;;;;;17.02;7.05;;;;;;;;;;5074442;28;20025;-77
2022/06/02 00:44:47;;;;;;;17.33;6.90;;;;;;;;;;5071454;28;20020;-77
2022/06/02 00:47:28;;;;;;;25.23;8.10;;;;;;;;;;5070604;28;20111;-77
2022/06/02 00:50:04;;;;;;;18.48;7.72;;;;;;;;;;5072495;28;20029;-77
2022/06/02 00:52:33;;;;;;;22.00;7.43;;;;;;;;;;5072775;28;20035;-78
2022/06/02 00:57:58;;;;;;;17.30;7.50;;;;;;;;;;5074656;28;20071;-77
2022/06/02 01:00:44;;;;;;;19.73;7.90;;;;;;;;;;5076034;28;20047;-78
2022/06/02 01:03:33;;;;;;;15.10;6.78;;;;;;;;;;5074224;28;20048;-77
2022/06/02 01:06:18;;;;;;;16.45;6.43;;;;;;;;;;5077067;28;20043;-77
2022/06/02 01:08:45;;;;;;;15.75;6.28;;;;;;;;;;5078772;28;20475;-77
2022/06/02 01:11:23;;;;;;;13.57;5.93;;;;;;;;;;5077713;28;20024;-78
2022/06/02 01:14:00;;;;;;;18.42;5.53;;;;;;;;;;5074901;28;20021;-77
2022/06/02 01:16:38;;;;;;;18.85;5.80;;;;;;;;;;5080570;28;20044;-77
2022/06/02 01:19:07;;;;;;;17.92;5.72;;;;;;;;;;5076776;28;20036;-77
2022/06/02 01:21:48;;;;;;;14.25;4.57;;;;;;;;;;5084535;28;20036;-77
2022/06/02 01:24:29;;;;;;;13.43;4.77;;;;;;;;;;5075552;28;20092;-77
2022/06/02 01:27:01;;;;;;;17.33;5.47;;;;;;;;;;5081347;28;20387;-77
2022/06/02 01:29:30;;;;;;;13.25;5.28;;;;;;;;;;5073435;28;20093;-77
2022/06/02 01:32:08;;;;;;;13.70;5.32;;;;;;;;;;5072784;28;20024;-77
2022/06/02 01:34:50;;;;;;;18.05;4.88;;;;;;;;;;5079179;28;20681;-77
2022/06/02 01:37:25;;;;;;;14.88;4.97;;;;;;;;;;5080301;28;20133;-77
2022/06/02 01:40:10;;;;;;;18.55;5.38;;;;;;;;;;5073346;28;20032;-78
2022/06/02 01:42:39;;;;;;;16.08;4.68;;;;;;;;;;5074227;28;20464;-77
2022/06/02 01:45:14;;;;;;;15.10;5.65;;;;;;;;;;5077362;28;20496;-78
2022/06/02 01:47:44;;;;;;;11.95;5.93;;;;;;;;;;5084148;28;20078;-78
2022/06/02 01:50:13;;;;;;;19.77;5.70;;;;;;;;;;5076169;28;20111;-77
2022/06/02 01:52:39;;;;;;;13.15;5.05;;;;;;;;;;5075923;28;20107;-77
2022/06/02 01:55:19;;;;;;;17.10;5.07;;;;;;;;;;5075152;28;20029;-78
2022/06/02 01:57:46;;;;;;;18.85;5.07;;;;;;;;;;5071594;28;20051;-77
2022/06/02 02:00:18;;;;;;;17.17;5.53;;;;;;;;;;5073640;28;20024;-77
2022/06/02 02:03:03;;;;;;;16.52;4.30;;;;;;;;;;5077351;28;20063;-78
2022/06/02 02:05:29;;;;;;;13.27;4.18;;;;;;;;;;5077650;28;20034;-78
2022/06/02 02:08:17;;;;;;;13.10;4.30;;;;;;;;;;5071337;28;20055;-78
2022/06/02 02:11:06;;;;;;;19.42;4.18;;;;;;;;;;5074057;28;20423;-78
2022/06/02 02:13:32;;;;;;;15.25;4.70;;;;;;;;;;5075592;28;20213;-77
2022/06/02 02:16:01;;;;;;;23.27;4.38;;;;;;;;;;5072344;28;20531;-78
2022/06/02 02:18:46;;;;;;;19.65;5.15;;;;;;;;;;5077699;28;20523;-77
2022/06/02 02:21:30;;;;;;;8.55;3.80;;;;;;;;;;5072867;28;20437;-77
2022/06/02 02:24:09;;;;;;;13.25;3.90;;;;;;;;;;5071976;28;20093;-78
2022/06/02 02:26:42;;;;;;;11.75;3.88;;;;;;;;;;5077057;28;20024;-77
2022/06/02 02:29:14;;;;;;;11.65;4.10;;;;;;;;;;5077050;28;20043;-78
2022/06/02 02:31:40;;;;;;;12.65;3.25;;;;;;;;;;5077384;28;20035;-77
2022/06/02 02:34:06;;;;;;;10.82;2.75;;;;;;;;;;5071905;28;20511;-78
2022/06/02 02:36:37;;;;;;;14.15;3.60;;;;;;;;;;5074727;28;20048;-77
2022/06/02 02:39:18;;;;;;;11.95;3.25;;;;;;;;;;5074685;28;20021;-78
2022/06/02 02:42:00;;;;;;;19.73;3.78;;;;;;;;;;5080874;28;20480;-78
2022/06/02 02:44:31;;;;;;;14.98;3.72;;;;;;;;;;5078946;28;20028;-78
2022/06/02 02:47:18;;;;;;;9.75;2.90;;;;;;;;;;5074135;28;20020;-78
2022/06/02 02:49:47;;;;;;;15.63;3.33;;;;;;;;;;5070251;28;20031;-78
2022/06/02 02:52:13;;;;;;;9.85;3.60;;;;;;;;;;5071657;28;20036;-78
2022/06/02 02:54:39;;;;;;;7.72;2.88;;;;;;;;;;5070816;28;20492;-77
2022/06/02 02:57:10;;;;;;;15.65;3.50;;;;;;;;;;5066044;28;20037;-78
2022/06/02 02:59:42;;;;;;;11.93;2.75;;;;;;;;;;5073240;28;20065;-78
2022/06/02 03:02:31;;;;;;;17.90;3.70;;;;;;;;;;5071524;28;20637;-78
2022/06/02 03:05:17;;;;;;;11.18;2.90;;;;;;;;;;5069818;28;20035;-78
2022/06/02 03:07:43;;;;;;;15.93;3.08;;;;;;;;;;5070269;28;20385;-78
2022/06/02 03:10:27;;;;;;;10.60;3.00;;;;;;;;;;5075897;28;20153;-78
2022/06/02 03:12:53;;;;;;;17.42;3.28;;;;;;;;;;5073791;28;20020;-78
2022/06/02 03:15:39;;;;;;;13.32;4.78;;;;;;;;;;5074846;28;20028;-78
2022/06/02 03:18:14;;;;;;;21.45;6.68;;;;;;;;;;5065548;28;20101;-78
2022/06/02 03:20:47;;;;;;;15.07;5.47;;;;;;;;;;5078809;28;20030;-78
2022/06/02 03:23:16;;;;;;;21.20;6.63;;;;;;;;;;5078292;28;20035;-77
2022/06/02 03:25:46;;;;;;;16.30;6.60;;;;;;;;;;5070802;28;20052;-78
2022/06/02 03:28:13;;;;;;;16.83;6.18;;;;;;;;;;5076174;28;20028;-78
2022/06/02 03:30:48;;;;;;;16.90;6.30;;;;;;;;;;5083821;28;20035;-77
2022/06/02 03:33:26;;;;;;;18.02;5.32;;;;;;;;;;5071151;28;20435;-78
2022/06/02 03:35:52;;;;;;;21.33;5.95;;;;;;;;;;5084938;28;20496;-77
2022/06/02 03:38:25;;;;;;;12.38;5.57;;;;;;;;;;5083392;28;20039;-77
2022/06/02 03:40:58;;;;;;;11.77;5.40;;;;;;;;;;5077590;28;20434;-78
2022/06/02 03:43:26;;;;;;;13.27;4.90;;;;;;;;;;5085232;28;20425;-77
2022/06/02 03:46:10;;;;;;;11.70;5.00;;;;;;;;;;5083015;28;20029;-77
2022/06/02 03:49:15;;;;;;;14.20;4.50;;;;;;;;;;5071085;28;20024;-77
2022/06/02 03:51:42;;;;;;;17.45;4.55;;;;;;;;;;4992053;28;20060;-77
2022/06/02 03:54:27;;;;;;;14.90;4.45;;;;;;;;;;5000468;28;20026;-77
2022/06/02 03:57:14;;;;;;;12.82;4.20;;;;;;;;;;5044227;28;20040;-78
2022/06/02 03:59:59;;;;;;;12.73;4.30;;;;;;;;;;5083526;28;20032;-78
2022/06/02 04:02:29;;;;;;;17.45;5.00;;;;;;;;;;5070226;28;20059;-77
2022/06/02 04:05:06;;;;;;;13.23;4.57;;;;;;;;;;5083135;28;20302;-77
2022/06/02 04:07:32;;;;;;;13.40;4.80;;;;;;;;;;5072585;28;20130;-77
2022/06/02 04:09:58;;;;;;;15.63;4.78;;;;;;;;;;5083114;28;20043;-77
2022/06/02 04:15:28;;;;;;;15.20;4.40;;;;;;;;;;5084136;28;20035;-77
2022/06/02 04:17:54;;;;;;;7.85;4.03;;;;;;;;;;5082347;28;20071;-77
2022/06/02 04:20:35;;;;;;;14.70;4.25;;;;;;;;;;5072318;28;20090;-77
2022/06/02 04:23:11;;;;;;;14.88;4.45;;;;;;;;;;5084302;28;20024;-78
2022/06/02 04:25:37;;;;;;;12.77;4.50;;;;;;;;;;5083092;28;20430;-78
2022/06/02 04:28:21;;;;;;;15.40;4.20;;;;;;;;;;5081977;28;20059;-78
2022/06/02 04:31:06;;;;;;;9.80;4.22;;;;;;;;;;5083854;28;20024;-78
2022/06/02 04:33:37;;;;;;;9.60;4.32;;;;;;;;;;5084158;28;20031;-78
2022/06/02 04:36:13;;;;;;;11.20;4.20;;;;;;;;;;5083780;28;20036;-78
2022/06/02 04:38:39;;;;;;;17.67;5.07;;;;;;;;;;5084282;28;20024;-78
2022/06/02 04:41:05;;;;;;;12.07;4.25;;;;;;;;;;5079479;28;20514;-78
2022/06/02 04:43:37;;;;;;;15.00;4.68;;;;;;;;;;5070277;28;20025;-78
2022/06/02 04:46:03;;;;;;;17.08;5.43;;;;;;;;;;5071723;28;20031;-78
2022/06/02 04:48:30;;;;;;;13.55;5.97;;;;;;;;;;5084294;28;20266;-79
2022/06/02 04:50:59;;;;;;;18.17;5.88;;;;;;;;;;5082058;28;20013;-78
2022/06/02 04:53:30;;;;;;;18.77;6.22;;;;;;;;;;5083906;28;20082;-78
2022/06/02 04:56:19;;;;;;;15.87;5.73;;;;;;;;;;5084111;28;20027;-78
2022/06/02 04:58:51;;;;;;;10.73;4.20;;;;;;;;;;5082830;28;20123;-78
2022/06/02 05:01:21;;;;;;;14.38;4.68;;;;;;;;;;5082006;28;20177;-78
2022/06/02 05:03:55;;;;;;;9.88;4.10;;;;;;;;;;5083314;28;20536;-78
2022/06/02 05:06:21;;;;;;;14.65;4.40;;;;;;;;;;5083813;28;20046;-78
2022/06/02 05:08:47;;;;;;;8.40;3.72;;;;;;;;;;5080637;28;20032;-78
2022/06/02 05:11:26;;;;;;;21.48;5.70;;;;;;;;;;5082112;28;20031;-78
2022/06/02 05:14:04;;;;;;;18.42;5.75;;;;;;;;;;5083947;28;20085;-79
2022/06/02 05:17:06;;;;;;;25.45;9.43;;;;;;;;;;5082322;28;20024;-78
2022/06/02 05:19:50;;;;;;;21.50;7.65;;;;;;;;;;5001207;28;20430;-78
2022/06/02 05:22:35;;;;;;;18.48;6.78;;;;;;;;;;5075859;28;20481;-78
2022/06/02 05:25:13;;;;;;;12.63;5.82;;;;;;;;;;5083522;28;20024;-78
2022/06/02 05:27:58;;;;;;;15.10;6.75;;;;;;;;;;5081945;28;20020;-78
2022/06/02 05:30:24;;;;;;;22.10;8.38;;;;;;;;;;5084066;28;20020;-78
2022/06/02 05:32:53;;;;;;;24.95;9.75;;;;;;;;;;5083143;28;20460;-78
2022/06/02 05:35:25;;;;;;;21.23;8.65;;;;;;;;;;5079660;28;20077;-78
2022/06/02 05:37:51;;;;;;;20.73;9.23;;;;;;;;;;5085054;28;20035;-78
2022/06/02 05:40:26;;;;;;;21.85;8.57;;;;;;;;;;5076268;28;20098;-78
2022/06/02 05:43:11;;;;;;;18.40;9.05;;;;;;;;;;5078226;28;20016;-78
2022/06/02 05:46:03;;;;;;;15.05;8.43;;;;;;;;;;5083322;28;20107;-78
2022/06/02 05:48:44;;;;;;;19.73;8.23;;;;;;;;;;5070019;28;20047;-79
2022/06/02 05:51:18;;;;;;;19.98;9.02;;;;;;;;;;5075601;28;20035;-79
2022/06/02 05:54:04;;;;;;;19.08;8.02;;;;;;;;;;5068892;28;20032;-79
2022/06/02 05:56:36;;;;;;;13.07;8.00;;;;;;;;;;5072384;28;20085;-78
2022/06/02 05:59:05;;;;;;;20.98;7.43;;;;;;;;;;5074549;28;20028;-78
2022/06/02 06:01:34;;;;;;;18.80;7.70;;;;;;;;;;5074330;28;20031;-78
2022/06/02 06:04:09;;;;;;;18.83;7.53;;;;;;;;;;5075998;28;20040;-78
2022/06/02 06:06:51;;;;;;;21.70;8.35;;;;;;;;;;5081818;28;20039;-78
2022/06/02 06:09:23;;;;;;;16.30;7.72;;;;;;;;;;5074722;28;20027;-75
2022/06/02 06:12:08;;;;;;;21.05;8.63;;;;;;;;;;5070581;28;20035;-74
2022/06/02 06:14:37;;;;;;;15.40;8.13;;;;;;;;;;5077357;28;20611;-75
2022/06/02 06:17:16;;;;;;;14.40;6.95;;;;;;;;;;5075344;28;20032;-74
2022/06/02 06:19:49;;;;;;;19.05;7.47;;;;;;;;;;5070633;28;20468;-74
2022/06/02 06:22:15;;;;;;;14.32;7.30;;;;;;;;;;5073257;28;20028;-74
2022/06/02 06:25:00;;;;;;;18.17;6.35;;;;;;;;;;5079743;28;20009;-75
2022/06/02 06:27:26;;;;;;;13.75;5.53;;;;;;;;;;5056522;28;20749;-74
2022/06/02 06:30:04;;;;;;;10.52;4.25;;;;;;;;;;5075043;28;20028;-79
2022/06/02 06:32:33;;;;;;;10.60;4.43;;;;;;;;;;5074231;28;20238;-75
2022/06/02 06:34:59;;;;;;;13.68;4.60;;;;;;;;;;5074725;28;20229;-75
2022/06/02 06:38:01;;;;;;;10.50;4.60;;;;;;;;;;5071538;28;20040;-74
2022/06/02 06:40:46;;;;;;;13.93;5.30;;;;;;;;;;4994865;28;20042;-74
2022/06/02 06:43:31;;;;;;;13.35;4.70;;;;;;;;;;5069579;28;20039;-73
2022/06/02 06:46:01;;;;;;;13.75;4.63;;;;;;;;;;5073577;28;20148;-74
2022/06/02 06:48:36;;;;;;;12.88;4.25;;;;;;;;;;5075553;28;20020;-74
2022/06/02 06:51:16;;;;;;;14.88;4.78;;;;;;;;;;5071337;28;20032;-78
2022/06/02 06:54:06;;;;;;;13.20;5.13;;;;;;;;;;5071951;28;20467;-77
2022/06/02 06:56:50;;;;;;;19.38;5.78;;;;;;;;;;5032584;28;20039;-77
2022/06/02 06:59:32;;;;;;;15.98;6.50;;;;;;;;;;5068541;28;20063;-74
2022/06/02 07:02:06;;;;;;;14.18;5.53;;;;;;;;;;5074671;28;20016;-74
2022/06/02 07:04:35;;;;;;;15.63;5.50;;;;;;;;;;5070272;28;20063;-73
2022/06/02 07:07:13;;;;;;;16.48;5.25;;;;;;;;;;5071282;28;20159;-74
2022/06/02 07:09:41;;;;;;;17.20;4.75;;;;;;;;;;5071298;28;20020;-80
2022/06/02 07:15:10;;;;;;;14.90;4.72;;;;;;;;;;5084025;28;20515;-74
2022/06/02 07:17:56;;;;;;;11.82;4.00;;;;;;;;;;5084188;28;20472;-74
2022/06/02 07:20:29;;;;;;;7.65;3.67;;;;;;;;;;5085346;28;20027;-75
2022/06/02 07:23:18;;;;;;;12.70;4.30;;;;;;;;;;5083840;28;20255;-74
2022/06/02 07:25:44;;;;;;;14.95;4.65;;;;;;;;;;5085296;28;20089;-75
2022/06/02 07:28:16;;;;;;;7.03;3.05;;;;;;;;;;5084250;28;20020;-82
2022/06/02 07:30:43;;;;;;;7.78;2.70;;;;;;;;;;5083598;28;20027;-74
2022/06/02 07:33:27;;;;;;;8.20;2.95;;;;;;;;;;5085048;28;20452;-75
2022/06/02 07:36:09;;;;;;;9.40;3.13;;;;;;;;;;5081882;28;20496;-78
2022/06/02 07:38:35;;;;;;;9.93;3.25;;;;;;;;;;5076074;28;20348;-74
2022/06/02 07:41:01;;;;;;;7.05;3.13;;;;;;;;;;5078738;28;20263;-77
2022/06/02 07:43:42;;;;;;;7.15;3.00;;;;;;;;;;5084676;28;20024;-79
2022/06/02 07:46:08;;;;;;;;;;;;;;;;;;5085417;28;20099;-75
2022/06/02 07:48:46;;;;;;;7.32;2.72;;;;;;;;;;5080631;28;20006;-75
2022/06/02 07:51:24;;;;;;;10.70;3.05;;;;;;;;;;5067911;28;20291;-79
2022/06/02 07:54:09;;;;;;;9.95;3.70;;;;;;;;;;5073992;28;20537;-74
2022/06/02 07:56:51;;;;;;;6.90;3.35;;;;;;;;;;5083422;28;20028;-74
2022/06/02 07:59:38;;;;;;;8.88;3.55;;;;;;;;;;5073684;28;20027;-74
2022/06/02 08:02:28;;;;;;;17.25;4.35;;;;;;;;;;5066495;28;20062;-84
2022/06/02 08:05:24;;;;;;;10.95;3.78;;;;;;;;;;5056353;28;20152;-74
2022/06/02 08:07:52;;;;;;;7.70;3.88;;;;;;;;;;5049391;28;20101;-76
2022/06/02 08:10:25;;;;;;;6.00;3.50;;;;;;;;;;5069089;28;20045;-78
2022/06/02 08:13:08;;;;;;;10.35;4.00;;;;;;;;;;5067542;28;20025;-74
2022/06/02 08:16:10;;;;;;;8.40;3.83;;;;;;;;;;5073155;28;20066;-75
2022/06/02 08:18:36;;;;;;;;;;;;;;;;;;4991338;28;20121;-79
2022/06/02 08:21:17;;;;;;;9.95;4.40;;;;;;;;;;5054655;28;19982;-75
2022/06/02 08:23:47;;;;;;;10.27;4.07;;;;;;;;;;5070553;28;20038;-76
2022/06/02 08:26:16;;;;;;;6.85;3.72;;;;;;;;;;5069217;28;20312;-75
2022/06/02 08:28:42;;;;;;;8.68;4.05;;;;;;;;;;5066120;28;20035;-74
2022/06/02 08:31:38;;;;;;;12.77;4.13;;;;;;;;;;5062767;28;20069;-76
2022/06/02 08:34:16;;;;;;;10.13;4.05;;;;;;;;;;5048374;28;20048;-74
2022/06/02 08:36:54;;;;;;;8.70;4.28;;;;;;;;;;5065081;28;20119;-75
2022/06/02 08:39:35;;;;;;;7.65;4.38;;;;;;;;;;5067376;28;20036;-75
2022/06/02 08:42:20;;;;;;;12.35;4.80;;;;;;;;;;5063451;28;20023;-74
2022/06/02 08:45:19;;;;;;;9.43;4.50;;;;;;;;;;5068135;28;20028;-74
2022/06/02 08:47:51;;;;;;;8.73;4.25;;;;;;;;;;5023475;28;20404;-75
2022/06/02 08:50:26;;;;;;;8.98;4.03;;;;;;;;;;5074412;28;20040;-77
2022/06/02 08:53:11;;;;;;;12.18;4.25;;;;;;;;;;5066257;28;20013;-76
2022/06/02 08:55:58;;;;;;;9.65;3.50;;;;;;;;;;5070681;28;20671;-83
2022/06/02 08:58:27;;;;;;;8.38;4.20;;;;;;;;;;5065276;28;20464;-75
2022/06/02 09:01:05;;;;;;;10.00;4.60;;;;;;;;;;5064211;28;20044;-75
2022/06/02 09:03:38;;;;;;;8.55;4.53;;;;;;;;;;5074744;28;20106;-74
2022/06/02 09:06:23;;;;;;;10.07;4.03;;;;;;;;;;5061917;28;20021;-77
2022/06/02 09:08:52;;;;;;;10.25;3.90;;;;;;;;;;5063163;28;20784;-75
2022/06/02 09:11:30;;;;;;;9.20;3.65;;;;;;;;;;5063275;28;20029;-75
2022/06/02 09:14:23;;;;;;;10.73;3.75;;;;;;;;;;5066715;28;20029;-76
2022/06/02 09:16:49;;;;;;;14.18;3.95;;;;;;;;;;5040455;28;20032;-75
2022/06/02 09:19:17;;;;;;;10.38;4.75;;;;;;;;;;5067125;28;20055;-75
2022/06/02 09:21:46;;;;;;;13.18;4.47;;;;;;;;;;5067021;28;20027;-77
2022/06/02 09:24:47;;;;;;;10.15;4.35;;;;;;;;;;5066696;28;20146;-80
2022/06/02 09:27:13;;;;;;;;;;;;;;;;;;4953506;28;20598;-74
2022/06/02 09:29:58;;;;;;;12.18;3.95;;;;;;;;;;5056216;28;19904;-74
2022/06/02 09:32:24;;;;;;;8.27;3.30;;;;;;;;;;5080701;28;20533;-76
2022/06/02 09:35:02;;;;;;;10.52;3.88;;;;;;;;;;5078287;28;20047;-78
2022/06/02 09:37:34;;;;;;;10.63;3.40;;;;;;;;;;5086278;28;20032;-76
2022/06/02 09:40:16;;;;;;;5.55;3.05;;;;;;;;;;5079705;28;20447;-76
2022/06/02 09:42:54;;;;;;;10.13;3.80;;;;;;;;;;5066018;28;20080;-75
2022/06/02 09:45:39;;;;;;;7.57;3.50;;;;;;;;;;5069825;28;20031;-79
2022/06/02 09:48:16;;;;;;;6.07;3.13;;;;;;;;;;5073572;28;20123;-79
2022/06/02 09:50:44;;;;;;;6.70;3.38;;;;;;;;;;5078084;28;20513;-73
2022/06/02 09:53:23;;;;;;;9.20;3.22;;;;;;;;;;5066312;28;20016;-73
2022/06/02 09:55:58;;;;;;;7.85;3.50;;;;;;;;;;5065559;28;20122;-75
2022/06/02 09:58:34;;;;;;;5.10;2.97;;;;;;;;;;5066319;28;20040;-73
2022/06/02 10:01:06;;;;;;;7.03;3.00;;;;;;;;;;5070303;28;20419;-75
2022/06/02 10:03:35;;;;;;;6.40;3.30;;;;;;;;;;5064732;28;20048;-76
2022/06/02 10:06:13;;;;;;;7.05;2.65;;;;;;;;;;5066613;28;20467;-74
2022/06/02 10:08:48;;;;;;;5.95;2.53;;;;;;;;;;5066226;28;20017;-76
2022/06/02 10:11:44;;;;;;;3.53;2.53;;;;;;;;;;5070484;28;20030;-86
2022/06/02 10:14:29;;;;;;;5.03;1.92;;;;;;;;;;5025358;28;20034;-73
2022/06/02 10:16:58;;;;;;;6.53;2.95;;;;;;;;;;5079097;28;20049;-74
2022/06/02 10:19:28;;;;;;;8.35;2.65;;;;;;;;;;5075974;28;20539;-73
2022/06/02 10:22:06;;;;;;;7.78;2.85;;;;;;;;;;5069008;28;20012;-78
2022/06/02 10:24:38;;;;;;;5.40;2.80;;;;;;;;;;5080925;28;20028;-79
2022/06/02 10:27:10;;;;;;;5.60;2.58;;;;;;;;;;5079381;28;20032;-89
2022/06/02 10:29:56;;;;;;;7.55;2.40;;;;;;;;;;5073426;28;20077;-87
2022/06/02 10:32:28;;;;;;;4.32;2.35;;;;;;;;;;5074115;28;20406;-74
2022/06/02 10:35:21;;;;;;;4.93;2.67;;;;;;;;;;5076071;28;20028;-74
2022/06/02 10:38:10;;;;;;;6.88;2.85;;;;;;;;;;5047111;28;20496;-79
2022/06/02 10:40:54;;;;;;;3.78;2.65;;;;;;;;;;5081044;28;20062;-85
2022/06/02 10:43:20;;;;;;;4.25;2.80;;;;;;;;;;5083981;28;20032;-83
2022/06/02 10:45:49;;;;;;;6.05;2.97;;;;;;;;;;5072008;28;20067;-72
2022/06/02 10:48:15;;;;;;;6.38;2.72;;;;;;;;;;5082363;28;20219;-74
2022/06/02 10:51:00;;;;;;;5.32;2.50;;;;;;;;;;5085335;28;20055;-74
2022/06/02 10:53:45;;;;;;;4.43;2.75;;;;;;;;;;5085168;28;20024;-73
2022/06/02 10:56:11;;;;;;;8.48;3.10;;;;;;;;;;5083875;28;20028;-73
2022/06/02 10:58:46;;;;;;;6.30;3.30;;;;;;;;;;5085176;28;20131;-74
2022/06/02 11:01:12;;;;;;;6.97;2.65;;;;;;;;;;5084109;28;20050;-86
2022/06/02 11:03:57;;;;;;;5.18;2.63;;;;;;;;;;5076332;28;20116;-79
2022/06/02 11:06:38;;;;;;;7.60;3.13;;;;;;;;;;5072709;28;20098;-75
2022/06/02 11:09:11;;;;;;;3.95;2.72;;;;;;;;;;5070738;28;20486;-73
2022/06/02 11:11:54;;;;;;;5.53;2.53;;;;;;;;;;5081274;28;20020;-76
2022/06/02 11:14:20;;;;;;;5.18;2.78;;;;;;;;;;5084250;28;20047;-74
2022/06/02 11:16:55;;;;;;;7.03;2.85;;;;;;;;;;5085008;28;20032;-75
2022/06/02 11:19:21;;;;;;;5.43;2.45;;;;;;;;;;5083864;28;20024;-74
2022/06/02 11:21:50;;;;;;;4.38;2.40;;;;;;;;;;5076137;28;20063;-73
2022/06/02 11:24:46;;;;;;;7.30;2.88;;;;;;;;;;5085286;28;20526;-74
2022/06/02 11:27:31;;;;;;;5.72;2.75;;;;;;;;;;5074037;28;20073;-83
2022/06/02 11:30:16;;;;;;;7.00;2.90;;;;;;;;;;5071651;28;20024;-76
2022/06/02 11:32:43;;;;;;;7.63;3.20;;;;;;;;;;5072854;28;20035;-73
2022/06/02 11:35:12;;;;;;;7.13;3.38;;;;;;;;;;5081241;28;20020;-73
2022/06/02 11:37:57;;;;;;;5.65;2.78;;;;;;;;;;5084690;28;20491;-73
2022/06/02 11:40:23;;;;;;;5.82;3.03;;;;;;;;;;5085152;28;20024;-77
2022/06/02 11:42:58;;;;;;;6.13;3.00;;;;;;;;;;5079736;28;20027;-78
2022/06/02 11:45:27;;;;;;;8.60;3.17;;;;;;;;;;5079164;28;20055;-74
2022/06/02 11:47:53;;;;;;;8.02;3.20;;;;;;;;;;5083274;28;20026;-73
2022/06/02 11:50:22;;;;;;;5.55;3.13;;;;;;;;;;5084144;28;20020;-73
2022/06/02 11:52:48;;;;;;;8.38;3.65;;;;;;;;;;5084489;28;20020;-73
2022/06/02 11:55:33;;;;;;;7.57;3.20;;;;;;;;;;5084081;28;20178;-79
2022/06/02 11:57:59;;;;;;;6.78;3.08;;;;;;;;;;5069706;28;20059;-73
2022/06/02 12:00:32;;;;;;;8.93;2.47;;;;;;;;;;5083671;28;20032;-74
2022/06/02 12:03:01;;;;;;;4.28;2.30;;;;;;;;;;5082667;28;20112;-74
2022/06/02 12:05:45;;;;;;;5.40;2.63;;;;;;;;;;5083746;28;20103;-82
2022/06/02 12:08:31;;;;;;;6.03;2.58;;;;;;;;;;5068880;28;20016;-74
2022/06/02 12:11:16;;;;;;;3.17;2.10;;;;;;;;;;5083482;28;20039;-74
2022/06/02 12:13:44;;;;;;;5.55;2.20;;;;;;;;;;5081097;28;20377;-75
2022/06/02 12:16:22;;;;;;;6.22;3.08;;;;;;;;;;5082799;28;20435;-74
2022/06/02 12:18:48;;;;;;;3.92;2.45;;;;;;;;;;5084272;28;20560;-75
2022/06/02 12:21:17;;;;;;;4.90;2.45;;;;;;;;;;5083798;28;20404;-81
2022/06/02 12:23:47;;;;;;;4.53;2.63;;;;;;;;;;5084258;28;20061;-75
2022/06/02 12:26:23;;;;;;;6.70;2.78;;;;;;;;;;5082389;28;20024;-74
2022/06/02 12:28:50;;;;;;;4.10;2.35;;;;;;;;;;5080359;28;20194;-82
2022/06/02 12:31:19;;;;;;;5.43;2.58;;;;;;;;;;5074265;28;20120;-75
2022/06/02 12:33:45;;;;;;;7.03;3.42;;;;;;;;;;5078873;28;20028;-89
2022/06/02 12:36:29;;;;;;;4.47;2.50;;;;;;;;;;5079132;28;20024;-75
2022/06/02 12:39:04;;;;;;;4.90;3.13;;;;;;;;;;5069266;28;20062;-75
2022/06/02 12:41:30;;;;;;;6.15;2.88;;;;;;;;;;5072941;28;20017;-76
2022/06/02 12:44:06;;;;;;;8.23;2.92;;;;;;;;;;5071208;28;20020;-74
2022/06/02 12:46:51;;;;;;;4.13;2.30;;;;;;;;;;5073200;28;20349;-75
2022/06/02 12:49:29;;;;;;;4.47;2.17;;;;;;;;;;5076773;28;20028;-74
2022/06/02 12:52:03;;;;;;;7.90;3.78;;;;;;;;;;5075641;28;20058;-81
2022/06/02 12:54:49;;;;;;;6.00;3.15;;;;;;;;;;5074589;28;20031;-75
2022/06/02 12:57:38;;;;;;;6.93;2.85;;;;;;;;;;5074727;28;20400;-75
2022/06/02 13:00:04;;;;;;;5.72;2.55;;;;;;;;;;5086324;28;20023;-75
2022/06/02 13:02:47;;;;;;;3.55;2.67;;;;;;;;;;5084283;28;20048;-78
2022/06/02 13:05:22;;;;;;;3.50;2.40;;;;;;;;;;5086478;28;20028;-77
2022/06/02 13:08:07;;;;;;;6.20;2.42;;;;;;;;;;5085848;28;20031;-82
2022/06/02 13:10:43;;;;;;;7.35;2.67;;;;;;;;;;5084989;28;20032;-77
2022/06/02 13:13:12;;;;;;;4.47;2.70;;;;;;;;;;5087263;28;20029;-75
2022/06/02 13:15:47;;;;;;;6.45;2.95;;;;;;;;;;5088208;28;20028;-78
2022/06/02 13:18:29;;;;;;;5.32;2.90;;;;;;;;;;5087555;28;20119;-75
2022/06/02 13:21:14;;;;;;;4.88;2.60;;;;;;;;;;5085880;28;20058;-75
2022/06/02 13:23:59;;;;;;;7.35;3.08;;;;;;;;;;5075429;28;20042;-75
2022/06/02 13:26:37;;;;;;;5.25;2.92;;;;;;;;;;5087611;28;20024;-75
2022/06/02 13:29:12;;;;;;;9.23;3.58;;;;;;;;;;5081790;28;20021;-76
2022/06/02 13:31:45;;;;;;;5.88;3.33;;;;;;;;;;5073318;28;20025;-79
2022/06/02 13:34:29;;;;;;;6.95;3.60;;;;;;;;;;5069622;28;20092;-75
2022/06/02 13:37:14;;;;;;;7.25;3.60;;;;;;;;;;5082038;28;20028;-74
2022/06/02 13:39:41;;;;;;;5.90;3.20;;;;;;;;;;5076917;28;20032;-75
2022/06/02 13:42:25;;;;;;;5.22;3.28;;;;;;;;;;5086481;28;20480;-74
2022/06/02 13:45:10;;;;;;;7.05;3.33;;;;;;;;;;5087183;28;20144;-83
2022/06/02 13:47:36;;;;;;;6.50;3.00;;;;;;;;;;5087027;28;20381;-86
2022/06/02 13:50:12;;;;;;;8.32;3.63;;;;;;;;;;5087251;28;20024;-75
2022/06/02 13:52:50;;;;;;;4.13;2.90;;;;;;;;;;5085752;28;20173;-77
2022/06/02 13:58:19;;;;;;;6.97;3.55;;;;;;;;;;5079132;28;20035;-84
2022/06/02 14:00:45;;;;;;;;;;;;;;;;;;5082014;28;20027;-74
2022/06/02 14:03:30;;;;;;;10.23;3.85;;;;;;;;;;5086897;28;20571;-76
2022/06/02 14:06:08;;;;;;;8.23;3.60;;;;;;;;;;5085222;28;20127;-74
2022/06/02 14:08:46;;;;;;;6.18;3.95;;;;;;;;;;5087565;28;20158;-75
2022/06/02 14:11:32;;;;;;;6.55;3.75;;;;;;;;;;5086464;28;20024;-79
2022/06/02 14:14:07;;;;;;;6.13;3.42;;;;;;;;;;5085564;28;20585;-76
2022/06/02 14:16:36;;;;;;;7.63;3.78;;;;;;;;;;5086282;28;20051;-75
2022/06/02 14:19:20;;;;;;;7.32;3.58;;;;;;;;;;5086571;28;20119;-78
2022/06/02 14:21:47;;;;;;;8.48;3.85;;;;;;;;;;5085145;28;20035;-75
2022/06/02 14:24:30;;;;;;;8.90;3.30;;;;;;;;;;5086419;28;20030;-81
2022/06/02 14:27:20;;;;;;;7.75;3.25;;;;;;;;;;5086328;28;20023;-75
2022/06/02 14:29:46;;;;;;;6.93;3.47;;;;;;;;;;5062142;28;20097;-75
2022/06/02 14:32:20;;;;;;;7.90;3.22;;;;;;;;;;5081746;28;20012;-75
2022/06/02 14:35:09;;;;;;;8.60;3.75;;;;;;;;;;5075899;28;20032;-74
2022/06/02 14:37:39;;;;;;;8.02;3.58;;;;;;;;;;5041712;28;20475;-75
2022/06/02 14:40:27;;;;;;;7.65;3.83;;;;;;;;;;5085730;28;20503;-75
2022/06/02 14:43:06;;;;;;;6.20;3.47;;;;;;;;;;5073810;28;20024;-79
2022/06/02 14:45:51;;;;;;;8.85;3.80;;;;;;;;;;5084512;28;20023;-83
2022/06/02 14:48:23;;;;;;;11.93;4.28;;;;;;;;;;5084820;28;20016;-75
2022/06/02 14:51:08;;;;;;;6.43;3.38;;;;;;;;;;5085676;28;20035;-75
2022/06/02 14:53:53;;;;;;;7.28;3.00;;;;;;;;;;5085678;28;20024;-78
2022/06/02 14:56:37;;;;;;;6.63;3.40;;;;;;;;;;5070737;28;20060;-77
2022/06/02 14:59:09;;;;;;;9.52;3.63;;;;;;;;;;5085644;28;20536;-75
2022/06/02 15:01:39;;;;;;;7.97;3.75;;;;;;;;;;5085489;28;20024;-77
2022/06/02 15:04:22;;;;;;;6.40;3.38;;;;;;;;;;5085175;28;20508;-75
2022/06/02 15:06:58;;;;;;;5.75;3.30;;;;;;;;;;5085873;28;20468;-78
2022/06/02 15:09:36;;;;;;;7.10;3.20;;;;;;;;;;5083612;28;20095;-78
2022/06/02 15:12:05;;;;;;;6.45;3.50;;;;;;;;;;5084927;28;20024;-75
2022/06/02 15:14:45;;;;;;;8.48;3.70;;;;;;;;;;5085099;28;20502;-85
2022/06/02 15:17:20;;;;;;;8.48;4.03;;;;;;;;;;5086112;28;20031;-88
2022/06/02 15:19:49;;;;;;;8.65;3.85;;;;;;;;;;5076254;28;20032;-74
2022/06/02 15:22:31;;;;;;;8.70;4.00;;;;;;;;;;5072089;28;20066;-77
2022/06/02 15:25:15;;;;;;;6.95;3.63;;;;;;;;;;5075332;28;20031;-83
2022/06/02 15:27:42;;;;;;;5.47;3.35;;;;;;;;;;5085594;28;20028;-90
2022/06/02 15:30:26;;;;;;;7.38;3.17;;;;;;;;;;5080558;28;20426;-86
2022/06/02 15:33:10;;;;;;;5.85;3.67;;;;;;;;;;5077514;28;20103;-89
2022/06/02 15:36:09;;;;;;;7.65;3.60;;;;;;;;;;5077804;28;20431;-74
2022/06/02 15:38:35;;;;;;;10.27;3.72;;;;;;;;;;5031681;28;20045;-74
2022/06/02 15:41:20;;;;;;;8.02;3.42;;;;;;;;;;5073108;28;20499;-86
2022/06/02 15:43:55;;;;;;;9.75;4.10;;;;;;;;;;5072206;28;20024;-75
2022/06/02 15:46:25;;;;;;;4.78;3.20;;;;;;;;;;5076959;28;20024;-75